Time;durP1;ratioP1;P1;durP2;ratioP2;P2;SDS_P1;SDS_P2;PMS_P1;PMS_P2;Temp;Humidity;BMP_temperature;BMP_pressure;BME280_temperature;BME280_humidity;BME280_pressure;Samples;Min_cycle;Max_cycle;Signal;HPM_P1;HPM_P2
2021/04/09 00:01:38;;;;;;;11.07;6.20;;;;;;;-0.92;67.44;99578.59;5051858;28;20036;-62
2021/04/09 00:04:03;;;;;;;11.57;7.10;;;;;;;-0.95;66.77;99572.59;5045865;28;20049;-63
2021/04/09 00:06:29;;;;;;;12.07;6.10;;;;;;;-1.06;67.57;99569.59;5033811;28;20044;-60
2021/04/09 00:08:54;;;;;;;10.27;6.90;;;;;;;-1.05;67.86;99570.47;5015738;28;20036;-61
2021/04/09 00:11:20;;;;;;;11.10;6.23;;;;;;;-1.10;67.23;99554.31;5013831;28;20136;-61
2021/04/09 00:13:45;;;;;;;12.90;6.90;;;;;;;-1.12;67.79;99564.34;5028173;28;20036;-60
2021/04/09 00:16:10;;;;;;;10.33;6.77;;;;;;;-1.02;67.02;99563.06;5030500;28;20033;-61
2021/04/09 00:18:36;;;;;;;10.90;7.27;;;;;;;-1.17;67.99;99562.41;5039273;28;20145;-61
2021/04/09 00:21:02;;;;;;;9.33;5.87;;;;;;;-1.31;67.85;99556.78;5036461;28;20037;-61
2021/04/09 00:23:28;;;;;;;11.60;6.83;;;;;;;-1.39;68.74;99555.63;5034756;28;20036;-61
2021/04/09 00:25:53;;;;;;;11.40;6.80;;;;;;;-1.45;69.16;99558.75;5033366;28;20029;-61
2021/04/09 00:28:19;;;;;;;11.23;7.57;;;;;;;-1.40;69.21;99557.25;5032411;28;20014;-61
2021/04/09 00:30:44;;;;;;;13.00;5.97;;;;;;;-1.38;69.16;99549.81;5036988;28;20037;-61
2021/04/09 00:33:10;;;;;;;9.20;5.70;;;;;;;-1.32;68.87;99550.06;5037292;28;20037;-61
2021/04/09 00:35:35;;;;;;;14.03;8.50;;;;;;;-1.39;68.69;99543.91;5019606;28;20025;-61
2021/04/09 00:38:01;;;;;;;8.53;6.33;;;;;;;-1.44;68.80;99534.44;5032020;28;20037;-61
2021/04/09 00:40:26;;;;;;;9.83;6.43;;;;;;;-1.35;68.71;99549.06;5034098;28;20029;-62
2021/04/09 00:42:52;;;;;;;14.10;8.17;;;;;;;-1.30;68.71;99545.94;5033209;28;20021;-61
2021/04/09 00:45:18;;;;;;;13.33;7.60;;;;;;;-1.25;67.94;99543.63;5021087;28;20044;-62
2021/04/09 00:47:44;;;;;;;11.13;6.93;;;;;;;-1.36;68.04;99542.34;5021193;28;20029;-61
2021/04/09 00:50:11;;;;;;;10.47;6.57;;;;;;;-1.33;67.93;99538.28;5036020;28;20037;-61
2021/04/09 00:52:38;;;;;;;11.00;7.63;;;;;;;-1.44;68.04;99529.41;5030086;28;20053;-61
2021/04/09 00:55:06;;;;;;;12.17;6.77;;;;;;;-1.48;68.84;99530.06;5036598;28;20021;-61
2021/04/09 00:57:32;;;;;;;9.17;6.07;;;;;;;-1.55;68.74;99533.13;5031580;28;20040;-62
2021/04/09 00:59:58;;;;;;;9.57;6.20;;;;;;;-1.67;68.80;99525.94;5036311;28;20037;-62
2021/04/09 01:02:23;;;;;;;12.60;6.97;;;;;;;-1.73;69.11;99523.13;5028001;28;20026;-61
2021/04/09 01:04:50;;;;;;;8.57;6.77;;;;;;;-1.77;69.58;99520.41;5047016;28;20057;-60
2021/04/09 01:07:16;;;;;;;12.17;6.07;;;;;;;-1.81;70.45;99524.47;5051929;28;20054;-60
2021/04/09 01:09:42;;;;;;;8.07;6.10;;;;;;;-1.71;70.35;99520.69;5052214;28;20021;-60
2021/04/09 01:12:08;;;;;;;11.13;5.63;;;;;;;-1.64;69.78;99518.50;5052559;28;20051;-60
2021/04/09 01:14:35;;;;;;;7.50;5.90;;;;;;;-1.64;69.48;99515.13;5052694;28;20401;-60
2021/04/09 01:17:03;;;;;;;11.30;5.93;;;;;;;-1.59;69.75;99523.75;5052908;28;20029;-60
2021/04/09 01:20:11;;;;;;;10.77;6.70;;;;;;;-1.59;70.11;99521.22;5053074;28;20139;-60
2021/04/09 01:22:45;;;;;;;9.17;6.43;;;;;;;-1.69;70.04;99514.06;5052066;28;20095;-60
2021/04/09 01:25:13;;;;;;;8.93;6.00;;;;;;;-1.76;69.83;99507.94;5053308;28;20083;-60
2021/04/09 01:27:51;;;;;;;10.63;6.67;;;;;;;-1.79;70.37;99509.47;5052946;28;20029;-60
2021/04/09 01:30:22;;;;;;;13.27;5.80;;;;;;;-1.86;70.37;99504.16;5053265;28;20033;-60
2021/04/09 01:32:49;;;;;;;7.63;5.80;;;;;;;-1.96;70.96;99504.56;5053626;28;20048;-60
2021/04/09 01:35:17;;;;;;;9.80;6.27;;;;;;;-1.94;70.35;99490.41;5053003;28;20067;-60
2021/04/09 01:38:09;;;;;;;8.30;6.27;;;;;;;-1.94;71.23;99484.50;5052431;28;20124;-60
2021/04/09 01:40:40;;;;;;;9.00;6.27;;;;;;;-1.99;71.14;99476.75;5052732;28;20044;-60
2021/04/09 01:43:09;;;;;;;8.60;5.97;;;;;;;-1.95;71.43;99481.13;5052316;28;20074;-60
2021/04/09 01:45:35;;;;;;;10.83;5.83;;;;;;;-1.99;71.17;99473.38;5053170;28;20078;-60
2021/04/09 01:48:04;;;;;;;9.57;5.80;;;;;;;-2.03;71.45;99474.06;5053429;28;20107;-60
2021/04/09 01:50:31;;;;;;;9.57;6.40;;;;;;;-1.99;71.29;99480.94;5054190;28;20726;-60
2021/04/09 01:52:59;;;;;;;10.27;5.73;;;;;;;-2.08;71.10;99476.34;5056442;28;20037;-60
2021/04/09 01:55:26;;;;;;;8.57;6.07;;;;;;;-2.12;71.90;99477.00;5057150;28;20064;-60
2021/04/09 01:57:53;;;;;;;10.40;7.17;;;;;;;-2.08;71.49;99473.00;5055343;28;20358;-60
2021/04/09 02:00:22;;;;;;;9.80;5.63;;;;;;;-2.12;71.77;99472.00;5056150;28;20210;-60
2021/04/09 02:02:49;;;;;;;10.17;6.47;;;;;;;-2.15;72.10;99465.97;5056608;28;20064;-60
2021/04/09 02:05:16;;;;;;;12.43;7.60;;;;;;;-2.20;71.62;99468.28;5056098;28;20064;-60
2021/04/09 02:07:44;;;;;;;12.23;7.90;;;;;;;-2.22;71.86;99469.88;5058403;28;20286;-60
2021/04/09 02:10:12;;;;;;;14.47;7.97;;;;;;;-2.24;71.64;99471.44;5060205;28;20395;-60
2021/04/09 02:12:39;;;;;;;12.60;7.30;;;;;;;-2.31;71.76;99464.44;5055052;28;20039;-60
2021/04/09 02:15:08;;;;;;;13.10;7.37;;;;;;;-2.26;72.66;99464.66;5056700;28;20048;-60
2021/04/09 02:17:35;;;;;;;14.00;8.17;;;;;;;-2.35;72.08;99457.56;5055266;28;20040;-60
2021/04/09 02:20:02;;;;;;;13.60;7.80;;;;;;;-2.37;72.52;99454.97;5046703;28;20044;-60
2021/04/09 02:22:28;;;;;;;13.07;7.67;;;;;;;-2.42;71.62;99453.91;5057845;28;20032;-60
2021/04/09 02:24:55;;;;;;;14.90;7.97;;;;;;;-2.39;72.41;99446.53;5058027;28;20077;-60
2021/04/09 02:27:21;;;;;;;15.43;7.13;;;;;;;-2.42;72.38;99445.53;5064231;28;20399;-60
2021/04/09 02:29:47;;;;;;;13.07;6.50;;;;;;;-2.45;72.33;99443.75;5058662;28;20029;-60
2021/04/09 02:32:13;;;;;;;11.37;6.87;;;;;;;-2.45;72.97;99441.22;5059050;28;20088;-60
2021/04/09 02:34:39;;;;;;;8.27;6.23;;;;;;;-2.48;72.80;99440.25;5056288;28;20065;-60
2021/04/09 02:37:04;;;;;;;16.63;8.23;;;;;;;-2.55;72.16;99430.72;5059105;28;20033;-60
2021/04/09 02:39:33;;;;;;;9.57;6.67;;;;;;;-2.48;73.24;99438.59;5059927;28;20059;-60
2021/04/09 02:42:04;;;;;;;13.60;6.87;;;;;;;-2.51;72.68;99427.56;5044019;28;20694;-61
2021/04/09 02:44:29;;;;;;;11.43;6.30;;;;;;;-2.55;72.72;99425.69;5059708;28;20040;-60
2021/04/09 02:47:17;;;;;;;10.27;6.20;;;;;;;-2.55;72.59;99429.06;5046036;28;20021;-60
2021/04/09 02:49:46;;;;;;;10.73;6.93;;;;;;;-2.61;72.70;99427.91;5061238;28;20054;-60
2021/04/09 02:52:37;;;;;;;17.67;8.27;;;;;;;-2.65;72.46;99416.03;5062684;28;20025;-60
2021/04/09 02:55:13;;;;;;;15.63;7.57;;;;;;;-2.67;73.55;99415.94;5048427;28;20033;-60
2021/04/09 02:57:40;;;;;;;14.53;7.40;;;;;;;-2.72;73.13;99414.91;5040944;28;20063;-60
2021/04/09 03:00:07;;;;;;;15.60;7.73;;;;;;;-2.77;72.98;99417.19;5053732;28;20033;-60
2021/04/09 03:02:33;;;;;;;16.43;7.63;;;;;;;-2.80;73.39;99413.69;5064093;28;20033;-60
2021/04/09 03:05:00;;;;;;;17.70;9.63;;;;;;;-2.82;73.25;99415.25;5058947;28;20056;-60
2021/04/09 03:07:26;;;;;;;13.23;7.23;;;;;;;-2.87;73.53;99407.53;5056924;28;20025;-60
2021/04/09 03:09:51;;;;;;;9.87;6.70;;;;;;;-2.88;74.12;99413.31;5056064;28;20040;-60
2021/04/09 03:12:19;;;;;;;14.17;8.53;;;;;;;-2.80;74.40;99406.16;5058200;28;20037;-60
2021/04/09 03:14:48;;;;;;;17.33;7.50;;;;;;;-2.82;73.63;99405.22;5061243;28;20111;-60
2021/04/09 03:17:20;;;;;;;15.67;7.23;;;;;;;-2.83;74.04;99406.88;5059976;28;20037;-60
2021/04/09 03:19:45;;;;;;;11.57;6.87;;;;;;;-2.90;74.44;99399.84;5057525;28;20025;-58
2021/04/09 03:22:12;;;;;;;12.17;7.17;;;;;;;-2.87;73.96;99404.16;5061394;28;20329;-61
2021/04/09 03:24:38;;;;;;;9.93;5.70;;;;;;;-2.92;73.53;99400.56;5063288;28;20086;-60
2021/04/09 03:27:05;;;;;;;12.03;6.40;;;;;;;-2.91;74.73;99398.13;5059425;28;20036;-60
2021/04/09 03:29:30;;;;;;;11.97;6.17;;;;;;;-2.88;74.31;99397.41;5058847;28;20029;-60
2021/04/09 03:31:56;;;;;;;8.87;6.30;;;;;;;-2.82;74.40;99391.03;5044914;28;20276;-59
2021/04/09 03:34:21;;;;;;;16.63;6.10;;;;;;;-2.83;74.01;99394.31;5053558;28;20029;-60
2021/04/09 03:36:47;;;;;;;12.93;7.23;;;;;;;-2.91;73.99;99385.59;5054083;28;20044;-61
2021/04/09 03:39:12;;;;;;;8.47;6.33;;;;;;;-2.94;74.24;99375.44;5056471;28;20141;-61
2021/04/09 03:41:38;;;;;;;9.37;6.20;;;;;;;-2.93;74.41;99378.81;5056927;28;20067;-60
2021/04/09 03:44:03;;;;;;;12.67;6.00;;;;;;;-2.95;74.58;99375.34;5055947;28;20111;-60
2021/04/09 03:46:28;;;;;;;12.03;7.10;;;;;;;-2.99;74.78;99373.50;5055431;28;20025;-60
2021/04/09 03:48:54;;;;;;;8.60;5.83;;;;;;;-2.99;74.45;99378.50;5045301;28;20384;-60
2021/04/09 03:51:19;;;;;;;9.13;6.00;;;;;;;-3.02;74.05;99378.38;5059719;28;20134;-61
2021/04/09 03:53:44;;;;;;;9.97;5.77;;;;;;;-3.07;74.69;99369.78;5068113;28;20032;-60
2021/04/09 03:56:10;;;;;;;11.63;6.17;;;;;;;-3.09;73.84;99377.22;5066420;28;20291;-61
2021/04/09 03:58:35;;;;;;;12.33;5.83;;;;;;;-3.11;74.29;99367.91;5059047;28;20453;-61
2021/04/09 04:01:01;;;;;;;13.67;6.33;;;;;;;-3.18;74.23;99360.91;5056945;28;20025;-60
2021/04/09 04:03:26;;;;;;;12.57;6.03;;;;;;;-3.17;74.08;99365.09;5052132;28;20057;-60
2021/04/09 04:05:52;;;;;;;10.47;7.20;;;;;;;-3.19;73.78;99359.19;5026102;28;20108;-61
2021/04/09 04:08:17;;;;;;;11.83;7.27;;;;;;;-3.22;74.45;99359.03;5034002;28;20383;-60
2021/04/09 04:10:42;;;;;;;10.97;7.53;;;;;;;-3.37;74.33;99344.13;5030287;28;20457;-60
2021/04/09 04:13:08;;;;;;;14.40;7.17;;;;;;;-3.26;73.96;99358.88;5024136;28;20025;-60
2021/04/09 04:15:33;;;;;;;10.93;6.33;;;;;;;-3.31;74.22;99345.25;5041474;28;20064;-60
2021/04/09 04:17:59;;;;;;;8.53;5.90;;;;;;;-3.31;73.69;99349.44;5032452;28;20075;-60
2021/04/09 04:20:24;;;;;;;10.60;6.40;;;;;;;-3.34;74.45;99341.75;5032483;28;20090;-60
2021/04/09 04:22:49;;;;;;;8.90;6.60;;;;;;;-3.25;74.35;99344.69;5038271;28;20363;-61
2021/04/09 04:25:15;;;;;;;13.87;7.40;;;;;;;-3.25;74.72;99347.22;5036358;28;20071;-60
2021/04/09 04:27:40;;;;;;;8.67;5.67;;;;;;;-3.24;74.56;99338.91;5032007;28;20075;-60
2021/04/09 04:30:07;;;;;;;10.03;6.63;;;;;;;-3.19;74.14;99344.13;5031973;28;20127;-60
2021/04/09 04:32:32;;;;;;;10.40;6.23;;;;;;;-3.27;74.46;99341.28;5035437;28;20427;-60
2021/04/09 04:34:58;;;;;;;12.37;6.33;;;;;;;-3.24;74.47;99343.91;5039901;28;20112;-60
2021/04/09 04:37:23;;;;;;;11.00;6.13;;;;;;;-3.18;73.96;99346.69;5035495;28;20109;-60
2021/04/09 04:39:48;;;;;;;13.03;7.00;;;;;;;-3.15;74.28;99340.97;5033884;28;20044;-60
2021/04/09 04:42:14;;;;;;;12.27;5.70;;;;;;;-3.07;74.75;99344.69;5036284;28;20036;-60
2021/04/09 04:44:39;;;;;;;8.03;5.97;;;;;;;-3.04;74.20;99342.31;5036419;28;20040;-60
2021/04/09 04:47:05;;;;;;;9.17;6.27;;;;;;;-3.02;74.90;99339.13;5031325;28;20053;-60
2021/04/09 04:49:31;;;;;;;9.90;6.57;;;;;;;-2.95;74.92;99345.25;5039214;28;20033;-61
2021/04/09 04:51:56;;;;;;;11.20;6.07;;;;;;;-2.89;74.55;99341.38;5032669;28;20278;-60
2021/04/09 04:54:21;;;;;;;8.43;5.87;;;;;;;-2.74;74.60;99340.34;5032818;28;20036;-60
2021/04/09 04:56:47;;;;;;;8.03;5.57;;;;;;;-2.64;74.50;99343.34;5035823;28;20038;-60
2021/04/09 04:59:12;;;;;;;8.57;5.73;;;;;;;-2.53;73.18;99338.78;5036155;28;20048;-60
2021/04/09 05:01:38;;;;;;;7.90;5.73;;;;;;;-2.45;72.98;99339.97;5035136;28;20033;-60
2021/04/09 05:04:03;;;;;;;9.80;6.43;;;;;;;-2.39;72.94;99335.22;5044233;28;20136;-60
2021/04/09 05:06:29;;;;;;;9.57;6.37;;;;;;;-2.28;72.42;99339.03;5052573;28;20259;-61
2021/04/09 05:08:54;;;;;;;14.53;7.10;;;;;;;-2.19;72.89;99343.59;5053866;28;20029;-60
2021/04/09 05:11:22;;;;;;;12.83;7.50;;;;;;;-2.06;71.63;99339.16;5041977;28;20021;-59
2021/04/09 05:13:47;;;;;;;9.30;6.30;;;;;;;-1.98;71.68;99339.47;5054049;28;20071;-61
2021/04/09 05:16:13;;;;;;;15.17;7.83;;;;;;;-1.91;71.48;99333.91;5052597;28;20060;-59
2021/04/09 05:18:38;;;;;;;11.43;6.50;;;;;;;-1.88;71.16;99339.91;5054861;28;20338;-59
2021/04/09 05:21:06;;;;;;;9.63;6.27;;;;;;;-1.68;71.28;99329.81;5053466;28;20063;-59
2021/04/09 05:23:31;;;;;;;13.47;6.67;;;;;;;-1.69;70.63;99330.59;5053325;28;20025;-60
2021/04/09 05:25:56;;;;;;;11.10;7.10;;;;;;;-1.55;70.25;99327.84;5072679;28;20044;-59
2021/04/09 05:28:22;;;;;;;10.37;6.33;;;;;;;-1.40;70.29;99320.91;5058384;28;20170;-61
2021/04/09 05:30:47;;;;;;;9.93;6.73;;;;;;;-1.24;70.05;99324.88;5056449;28;20029;-60
2021/04/09 05:33:13;;;;;;;8.10;6.03;;;;;;;-1.10;69.99;99328.75;5057059;28;20108;-61
2021/04/09 05:35:38;;;;;;;9.40;6.23;;;;;;;-0.93;68.60;99324.38;5056533;28;20098;-60
2021/04/09 05:38:03;;;;;;;15.23;6.10;;;;;;;-0.76;67.97;99320.81;5056578;28;20035;-61
2021/04/09 05:40:29;;;;;;;7.93;4.97;;;;;;;-0.57;67.78;99323.22;5056204;28;20064;-59
2021/04/09 05:43:04;;;;;;;10.23;4.90;;;;;;;-0.38;67.27;99308.75;5056508;28;20032;-60
2021/04/09 05:45:29;;;;;;;6.35;5.18;;;;;;;-0.22;66.95;99311.00;5057213;28;20851;-60
2021/04/09 05:48:01;;;;;;;8.47;5.83;;;;;;;-0.09;66.50;99314.00;5058266;28;20029;-59
2021/04/09 05:50:26;;;;;;;6.70;5.43;;;;;;;0.03;66.30;99305.13;5059098;28;20021;-60
2021/04/09 05:52:52;;;;;;;9.87;6.10;;;;;;;0.26;65.85;99305.03;5056302;28;20282;-60
2021/04/09 05:55:18;;;;;;;10.33;6.03;;;;;;;0.47;65.19;99299.81;5058685;28;20025;-60
2021/04/09 05:57:44;;;;;;;8.70;6.23;;;;;;;0.61;65.40;99306.16;5055702;28;20044;-60
2021/04/09 06:00:10;;;;;;;7.23;4.97;;;;;;;0.82;64.79;99295.88;5073454;28;20431;-60
2021/04/09 06:02:36;;;;;;;7.27;4.83;;;;;;;0.99;64.31;99302.28;5046908;28;20025;-60
2021/04/09 06:05:01;;;;;;;7.33;5.83;;;;;;;1.22;63.94;99305.47;5054488;28;20060;-59
2021/04/09 06:07:27;;;;;;;11.77;5.20;;;;;;;1.42;62.83;99293.41;5056837;28;20033;-59
2021/04/09 06:09:53;;;;;;;13.37;6.77;;;;;;;1.60;62.69;99294.78;5056128;28;20025;-61
2021/04/09 06:12:19;;;;;;;9.70;5.63;;;;;;;1.83;61.95;99290.31;5056823;28;20040;-60
2021/04/09 06:14:44;;;;;;;7.50;4.73;;;;;;;1.99;61.06;99284.00;5056358;28;20271;-60
2021/04/09 06:17:09;;;;;;;11.27;4.53;;;;;;;2.23;59.97;99287.13;5056898;28;20036;-60
2021/04/09 06:19:35;;;;;;;6.40;5.10;;;;;;;2.46;59.66;99283.44;5057152;28;20031;-60
2021/04/09 06:22:00;;;;;;;6.17;4.23;;;;;;;2.59;57.69;99280.38;5054973;28;20421;-60
2021/04/09 06:24:25;;;;;;;5.10;4.00;;;;;;;2.81;56.95;99285.94;5056658;28;20048;-61
2021/04/09 06:26:51;;;;;;;6.60;5.27;;;;;;;3.03;55.17;99280.53;5060314;28;20070;-60
2021/04/09 06:29:16;;;;;;;5.33;4.30;;;;;;;3.22;55.00;99278.38;5055906;28;20029;-59
2021/04/09 06:31:42;;;;;;;4.37;3.80;;;;;;;3.36;52.69;99281.22;5055081;28;20763;-60
2021/04/09 06:34:07;;;;;;;5.60;3.90;;;;;;;3.60;52.62;99279.19;5055926;28;20033;-60
2021/04/09 06:36:33;;;;;;;10.90;4.87;;;;;;;3.77;51.23;99271.88;5053441;28;20144;-60
2021/04/09 06:38:58;;;;;;;4.73;3.70;;;;;;;3.91;50.43;99275.50;5056008;28;20032;-59
2021/04/09 06:41:23;;;;;;;6.73;4.27;;;;;;;4.08;49.71;99265.63;5054954;28;20277;-59
2021/04/09 06:43:49;;;;;;;6.77;4.00;;;;;;;4.31;49.40;99269.41;5054978;28;20028;-59
2021/04/09 06:46:15;;;;;;;5.47;3.73;;;;;;;4.42;49.27;99261.97;5055739;28;20103;-59
2021/04/09 06:48:42;;;;;;;8.03;4.10;;;;;;;4.67;47.52;99258.13;5055000;28;20029;-59
2021/04/09 06:51:09;;;;;;;9.87;4.27;;;;;;;4.87;46.91;99251.63;5054261;28;20406;-60
2021/04/09 06:53:38;;;;;;;4.67;3.77;;;;;;;5.15;46.86;99248.59;5055492;28;20070;-60
2021/04/09 06:56:07;;;;;;;4.57;3.50;;;;;;;5.36;45.70;99245.47;5054999;28;20741;-59
2021/04/09 06:58:33;;;;;;;7.27;3.30;;;;;;;5.62;45.07;99241.53;5055062;28;20070;-60
2021/04/09 07:01:01;;;;;;;5.20;3.53;;;;;;;5.87;44.01;99242.66;5053690;28;20108;-60
2021/04/09 07:03:26;;;;;;;5.97;3.70;;;;;;;5.92;43.65;99231.69;5053960;28;20142;-60
2021/04/09 07:05:52;;;;;;;6.00;3.60;;;;;;;6.22;43.09;99240.41;5052462;28;20115;-59
2021/04/09 07:08:18;;;;;;;7.00;3.30;;;;;;;6.46;42.35;99238.03;5055063;28;20024;-60
2021/04/09 07:10:43;;;;;;;5.43;3.20;;;;;;;6.89;40.83;99245.13;5054038;28;20044;-60
2021/04/09 07:13:10;;;;;;;3.30;2.90;;;;;;;7.21;39.29;99229.13;5052248;28;20032;-60
2021/04/09 07:15:46;;;;;;;6.73;3.60;;;;;;;7.44;38.97;99231.75;5052123;28;20043;-59
2021/04/09 07:18:15;;;;;;;6.73;3.17;;;;;;;7.61;37.68;99225.84;5051386;28;20401;-59
2021/04/09 07:20:41;;;;;;;5.30;3.57;;;;;;;7.75;37.37;99231.84;5051380;28;20043;-60
2021/04/09 07:23:08;;;;;;;3.53;3.20;;;;;;;7.91;36.83;99235.25;5055112;28;20041;-60
2021/04/09 07:25:36;;;;;;;4.50;2.80;;;;;;;8.13;36.47;99226.78;5054764;28;20028;-60
2021/04/09 07:28:11;;;;;;;8.20;3.10;;;;;;;8.41;36.07;99229.34;5055321;28;20104;-60
2021/04/09 07:30:37;;;;;;;3.30;2.80;;;;;;;8.40;36.43;99225.09;5052836;28;20316;-59
2021/04/09 07:33:05;;;;;;;4.03;2.30;;;;;;;8.60;35.56;99221.66;5053259;28;20270;-60
2021/04/09 07:35:46;;;;;;;4.90;2.83;;;;;;;8.82;35.75;99213.97;5053095;28;20031;-60
2021/04/09 07:38:27;;;;;;;4.83;2.97;;;;;;;8.84;35.91;99218.19;5053949;28;20111;-60
2021/04/09 07:41:08;;;;;;;13.63;6.27;;;;;;;8.85;35.35;99216.50;5054368;28;20400;-60
2021/04/09 07:43:36;;;;;;;8.37;4.30;;;;;;;9.00;34.95;99201.94;5054590;28;20021;-59
2021/04/09 07:46:04;;;;;;;3.23;2.73;;;;;;;9.12;34.53;99206.19;5053602;28;20028;-60
2021/04/09 07:48:35;;;;;;;3.63;2.73;;;;;;;9.15;33.84;99198.50;5052277;28;20366;-60
2021/04/09 07:51:01;;;;;;;3.47;2.60;;;;;;;9.43;34.18;99204.31;5054179;28;20021;-60
2021/04/09 07:53:30;;;;;;;8.67;2.93;;;;;;;9.34;33.30;99196.69;5053496;28;20100;-60
2021/04/09 07:56:21;;;;;;;3.37;2.93;;;;;;;9.52;33.48;99194.88;5053631;28;20017;-60
2021/04/09 07:58:55;;;;;;;4.23;2.80;;;;;;;9.85;33.01;99191.25;5052251;28;20102;-59
2021/04/09 08:01:23;;;;;;;3.53;2.57;;;;;;;9.98;32.94;99181.75;5053482;28;20041;-59
2021/04/09 08:03:49;;;;;;;2.93;2.43;;;;;;;10.29;33.00;99185.81;5055089;28;20053;-60
2021/04/09 08:06:20;;;;;;;3.13;2.47;;;;;;;10.56;31.79;99181.28;5052795;28;20351;-59
2021/04/09 08:08:48;;;;;;;5.87;2.60;;;;;;;10.79;32.54;99177.59;5069913;28;20029;-60
2021/04/09 08:11:27;;;;;;;5.13;3.70;;;;;;;10.79;31.79;99182.75;5053136;28;20033;-59
2021/04/09 08:14:13;;;;;;;4.57;3.13;;;;;;;10.84;31.39;99180.97;5051989;28;20047;-59
2021/04/09 08:16:40;;;;;;;;;;;;;;;11.03;32.78;99178.22;5053986;28;20512;-59
2021/04/09 08:19:08;;;;;;;7.23;2.63;;;;;;;11.21;31.09;99173.69;5053137;28;19917;-59
2021/04/09 08:21:38;;;;;;;2.93;2.63;;;;;;;11.44;31.28;99173.38;5068719;28;20025;-59
2021/04/09 08:24:04;;;;;;;4.63;3.07;;;;;;;11.42;30.80;99168.25;5054207;28;20397;-60
2021/04/09 08:26:30;;;;;;;4.03;2.90;;;;;;;11.45;31.48;99169.94;5054868;28;20370;-59
2021/04/09 08:28:57;;;;;;;3.93;2.53;;;;;;;11.63;30.47;99169.66;5054389;28;20024;-59
2021/04/09 08:31:23;;;;;;;5.37;2.80;;;;;;;11.65;30.70;99161.94;5054733;28;20147;-59
2021/04/09 08:33:49;;;;;;;4.88;2.53;;;;;;;11.98;29.42;99166.59;5053236;28;20037;-59
2021/04/09 08:36:15;;;;;;;4.10;2.33;;;;;;;12.09;28.95;99162.16;5053431;28;20036;-59
2021/04/09 08:38:42;;;;;;;3.10;2.33;;;;;;;12.07;27.82;99161.31;5052416;28;20029;-59
2021/04/09 08:41:09;;;;;;;5.65;2.47;;;;;;;12.14;28.19;99159.47;5053176;28;20047;-59
2021/04/09 08:43:35;;;;;;;2.90;2.65;;;;;;;11.99;27.75;99159.75;5052173;28;20143;-60
2021/04/09 08:46:01;;;;;;;3.35;2.45;;;;;;;12.16;29.27;99157.75;5053259;28;20056;-60
2021/04/09 08:48:27;;;;;;;3.20;2.65;;;;;;;12.38;28.51;99159.06;5055004;28;20060;-60
2021/04/09 08:50:53;;;;;;;7.93;3.00;;;;;;;12.33;27.72;99155.72;5051095;28;20034;-60
2021/04/09 08:53:29;;;;;;;3.42;2.78;;;;;;;12.68;27.04;99155.94;5054779;28;20048;-61
2021/04/09 08:55:55;;;;;;;2.78;2.42;;;;;;;12.65;28.55;99157.69;5054802;28;20051;-61
2021/04/09 08:58:20;;;;;;;3.60;2.80;;;;;;;12.81;27.80;99151.41;5054346;28;20032;-61
2021/04/09 09:00:51;;;;;;;3.50;2.83;;;;;;;12.79;27.08;99153.16;5058031;28;20028;-60
2021/04/09 09:03:30;;;;;;;3.38;2.83;;;;;;;12.96;27.87;99155.38;5059568;28;20069;-59
2021/04/09 09:06:04;;;;;;;3.78;3.17;;;;;;;12.95;27.96;99154.53;5058968;28;20033;-59
2021/04/09 09:08:46;;;;;;;5.53;3.13;;;;;;;13.20;27.32;99149.75;5059006;28;20341;-59
2021/04/09 09:11:32;;;;;;;3.20;2.90;;;;;;;13.26;26.93;99155.63;5057331;28;20106;-60
2021/04/09 09:13:57;;;;;;;3.75;2.63;;;;;;;13.31;26.80;99154.69;5057068;28;20170;-60
2021/04/09 09:16:23;;;;;;;3.42;3.13;;;;;;;13.44;26.73;99154.41;5057408;28;20464;-60
2021/04/09 09:18:53;;;;;;;8.65;3.03;;;;;;;13.48;26.95;99147.44;5056919;28;20067;-59
2021/04/09 09:21:23;;;;;;;5.30;3.17;;;;;;;13.44;26.72;99143.25;5056566;28;20040;-60
2021/04/09 09:23:59;;;;;;;3.78;3.10;;;;;;;13.61;27.33;99141.13;5058489;28;20124;-59
2021/04/09 09:26:38;;;;;;;6.70;2.97;;;;;;;13.47;27.43;99143.16;5054588;28;20033;-59
2021/04/09 09:29:29;;;;;;;6.80;2.95;;;;;;;13.55;26.77;99134.38;5054884;28;20025;-59
2021/04/09 09:31:58;;;;;;;4.15;2.90;;;;;;;13.76;25.90;99127.88;5056566;28;20421;-59
2021/04/09 09:34:24;;;;;;;5.65;3.50;;;;;;;13.69;26.58;99129.78;5057967;28;20033;-59
2021/04/09 09:37:14;;;;;;;4.35;3.05;;;;;;;13.67;26.64;99118.63;5056295;28;20116;-59
2021/04/09 09:39:43;;;;;;;3.33;3.03;;;;;;;13.81;27.14;99122.63;5056245;28;20021;-59
2021/04/09 09:42:20;;;;;;;3.47;3.08;;;;;;;14.07;27.26;99125.41;5056111;28;20027;-60
2021/04/09 09:44:49;;;;;;;4.03;2.55;;;;;;;14.08;26.49;99116.78;5055670;28;20028;-59
2021/04/09 09:47:31;;;;;;;4.32;3.17;;;;;;;14.24;26.51;99112.94;5056685;28;20278;-60
2021/04/09 09:52:40;;;;;;;4.40;2.65;;;;;;;14.27;26.68;99110.25;5056858;28;20118;-61
2021/04/09 09:55:16;;;;;;;4.55;2.90;;;;;;;14.42;25.75;99107.31;5056913;28;20043;-60
2021/04/09 09:57:44;;;;;;;4.97;3.10;;;;;;;14.37;27.58;99103.16;5057388;28;20040;-60
2021/04/09 10:00:10;;;;;;;4.75;2.85;;;;;;;14.39;25.31;99103.97;5048645;28;20127;-60
2021/04/09 10:02:35;;;;;;;6.93;3.28;;;;;;;14.48;26.29;99098.56;5055367;28;20270;-60
2021/04/09 10:05:01;;;;;;;3.10;2.80;;;;;;;14.74;25.54;99100.41;5056267;28;20055;-60
2021/04/09 10:07:27;;;;;;;4.28;3.55;;;;;;;14.71;25.46;99096.19;5056577;28;20082;-61
2021/04/09 10:09:53;;;;;;;4.43;3.58;;;;;;;14.71;26.36;99088.47;5054747;28;20036;-60
2021/04/09 10:12:22;;;;;;;3.72;3.35;;;;;;;14.87;25.62;99086.28;5056642;28;20029;-59
2021/04/09 10:14:49;;;;;;;4.57;3.35;;;;;;;14.85;25.25;99090.66;5056336;28;20067;-59
2021/04/09 10:17:14;;;;;;;3.38;3.00;;;;;;;14.91;25.40;99086.16;5053643;28;20484;-60
2021/04/09 10:19:56;;;;;;;7.57;2.95;;;;;;;14.80;26.77;99075.28;5056682;28;20033;-60
2021/04/09 10:22:22;;;;;;;6.35;3.67;;;;;;;14.87;25.14;99078.53;5056181;28;20319;-60
2021/04/09 10:24:47;;;;;;;6.05;2.90;;;;;;;14.88;25.43;99069.91;5056932;28;20110;-60
2021/04/09 10:27:13;;;;;;;4.25;2.80;;;;;;;15.09;24.04;99071.84;5054008;28;20334;-60
2021/04/09 10:29:39;;;;;;;3.65;3.10;;;;;;;15.14;23.71;99072.56;5056801;28;20264;-60
2021/04/09 10:32:14;;;;;;;3.20;2.80;;;;;;;15.38;25.27;99061.47;5056781;28;20060;-60
2021/04/09 10:34:39;;;;;;;;;;;;;;;15.55;24.70;99060.97;5057271;28;20028;-63
2021/04/09 10:37:06;;;;;;;4.72;2.83;;;;;;;15.33;23.44;99062.50;5056257;28;19923;-63
2021/04/09 10:39:31;;;;;;;3.97;3.13;;;;;;;15.34;25.45;99059.88;5056336;28;20071;-63
2021/04/09 10:42:02;;;;;;;4.63;3.03;;;;;;;15.59;24.54;99059.13;5056817;28;20298;-63
2021/04/09 10:44:30;;;;;;;3.00;2.75;;;;;;;15.63;24.55;99056.38;5057179;28;20458;-63
2021/04/09 10:47:05;;;;;;;4.97;3.30;;;;;;;15.85;24.54;99052.19;5055887;28;20032;-62
2021/04/09 10:49:34;;;;;;;3.53;2.83;;;;;;;15.99;23.95;99044.84;5055332;28;20364;-63
2021/04/09 10:52:05;;;;;;;3.83;3.47;;;;;;;16.04;22.08;99031.72;5054829;28;20102;-63
2021/04/09 10:54:34;;;;;;;11.35;4.03;;;;;;;15.96;24.56;99034.56;5056642;28;20108;-63
2021/04/09 10:57:01;;;;;;;5.72;3.15;;;;;;;16.09;23.04;99034.16;5055045;28;20032;-62
2021/04/09 10:59:47;;;;;;;4.50;3.05;;;;;;;15.92;23.84;99029.56;5056476;28;20029;-63
2021/04/09 11:02:23;;;;;;;3.90;2.85;;;;;;;16.25;23.80;99020.63;5054173;28;20570;-63
2021/04/09 11:04:51;;;;;;;4.05;2.97;;;;;;;16.31;24.66;99020.41;5053745;28;20056;-62
2021/04/09 11:07:17;;;;;;;6.68;3.90;;;;;;;16.44;22.57;99010.47;5054832;28;20119;-63
2021/04/09 11:09:45;;;;;;;5.63;4.05;;;;;;;16.39;22.54;99023.56;5055987;28;20501;-63
2021/04/09 11:12:25;;;;;;;7.95;4.05;;;;;;;16.61;22.49;99017.63;5055433;28;20040;-63
2021/04/09 11:15:09;;;;;;;6.85;3.25;;;;;;;16.78;22.85;99010.94;5055603;28;20131;-63
2021/04/09 11:17:36;;;;;;;6.20;3.72;;;;;;;16.69;21.95;99002.66;5055430;28;20037;-63
2021/04/09 11:20:22;;;;;;;5.90;3.53;;;;;;;16.62;21.87;99006.38;5055932;28;20078;-62
2021/04/09 11:23:07;;;;;;;4.43;4.03;;;;;;;16.66;22.72;99000.19;5054306;28;20029;-63
2021/04/09 11:25:36;;;;;;;4.97;3.75;;;;;;;16.44;22.01;98987.16;5055041;28;20029;-63
2021/04/09 11:28:02;;;;;;;6.13;4.07;;;;;;;16.41;23.14;98995.06;5053964;28;20067;-63
2021/04/09 11:30:33;;;;;;;5.13;3.97;;;;;;;16.59;22.60;98993.56;5052754;28;20037;-63
2021/04/09 11:32:59;;;;;;;4.53;3.20;;;;;;;16.53;22.63;98991.16;5054690;28;20032;-63
2021/04/09 11:35:33;;;;;;;12.30;4.80;;;;;;;16.74;23.15;98993.81;5054926;28;20370;-63
2021/04/09 11:37:59;;;;;;;5.47;4.07;;;;;;;16.92;22.96;98987.09;5051213;28;20408;-63
2021/04/09 11:40:38;;;;;;;7.40;3.67;;;;;;;16.95;22.74;98986.13;5054708;28;20028;-63